Time;durP1;ratioP1;P1;durP2;ratioP2;P2;SDS_P1;SDS_P2;PMS_P1;PMS_P2;Temp;Humidity;BMP_temperature;BMP_pressure;BME280_temperature;BME280_humidity;BME280_pressure;Samples;Min_cycle;Max_cycle;Signal;HPM_P1;HPM_P2
2021/11/27 00:01:37;;;;;;;148.67;28.87;;;0.60;99.90;;;;;;4453258;28;659464;-71
2021/11/27 00:04:25;;;;;;;189.83;25.57;;;0.60;99.90;;;;;;4464253;27;660532;-71
2021/11/27 00:07:13;;;;;;;145.13;25.27;;;0.60;99.90;;;;;;4444248;27;660799;-72
2021/11/27 00:10:01;;;;;;;94.73;28.07;;;0.50;99.90;;;;;;4458893;27;660703;-71
2021/11/27 00:12:49;;;;;;;83.53;24.58;;;0.50;99.90;;;;;;4468959;27;659412;-72
2021/11/27 00:15:37;;;;;;;112.23;26.03;;;0.50;99.90;;;;;;4446343;27;658697;-72
2021/11/27 00:18:26;;;;;;;77.25;22.08;;;0.40;99.90;;;;;;4465067;27;659618;-71
2021/11/27 00:21:15;;;;;;;45.03;19.07;;;0.40;99.90;;;;;;4447224;27;658662;-71
2021/11/27 00:24:03;;;;;;;35.63;11.93;;;0.50;99.90;;;;;;4450758;27;658520;-72
2021/11/27 00:26:52;;;;;;;49.00;19.43;;;0.40;99.90;;;;;;4444182;27;658367;-72
2021/11/27 00:29:40;;;;;;;53.07;19.10;;;0.40;99.90;;;;;;4466119;27;658949;-72
2021/11/27 00:32:28;;;;;;;48.10;17.13;;;0.40;99.90;;;;;;4440679;27;659696;-72
2021/11/27 00:35:19;;;;;;;39.03;15.77;;;0.40;99.90;;;;;;4449088;27;658758;-72
2021/11/27 00:38:07;;;;;;;45.77;19.50;;;0.40;99.90;;;;;;4448352;27;658299;-71
2021/11/27 00:40:55;;;;;;;46.47;18.80;;;0.40;99.90;;;;;;4465022;27;658085;-72
2021/11/27 00:43:44;;;;;;;46.43;17.17;;;0.40;99.90;;;;;;4442828;27;659999;-72
2021/11/27 00:46:32;;;;;;;39.80;17.60;;;0.40;99.90;;;;;;4446931;27;659201;-72
2021/11/27 00:49:20;;;;;;;38.97;17.50;;;0.40;99.90;;;;;;4466546;27;658811;-72
2021/11/27 00:52:09;;;;;;;43.67;18.07;;;0.40;99.90;;;;;;4443672;27;658795;-72
2021/11/27 00:54:57;;;;;;;33.95;13.93;;;0.30;99.90;;;;;;4431727;27;658917;-72
2021/11/27 00:57:47;;;;;;;36.17;15.73;;;0.30;99.90;;;;;;4461325;27;659328;-71
2021/11/27 01:00:36;;;;;;;43.47;17.43;;;0.30;99.90;;;;;;4440815;27;659296;-72
2021/11/27 01:03:26;;;;;;;30.53;13.37;;;0.30;99.90;;;;;;4441507;27;659366;-72
2021/11/27 01:06:14;;;;;;;38.93;16.17;;;0.40;99.90;;;;;;4441735;27;659311;-72
2021/11/27 01:09:06;;;;;;;36.70;15.57;;;0.40;99.90;;;;;;4438097;27;658633;-71
2021/11/27 01:11:54;;;;;;;39.40;16.50;;;0.40;99.90;;;;;;4434945;27;659709;-71
2021/11/27 01:14:42;;;;;;;29.30;14.40;;;0.40;99.90;;;;;;4434578;28;658937;-72
2021/11/27 01:17:29;;;;;;;28.93;12.00;;;0.30;99.90;;;;;;4456030;28;658517;-72
2021/11/27 01:20:18;;;;;;;28.07;13.60;;;0.30;99.90;;;;;;4433577;28;659833;-72
2021/11/27 01:23:06;;;;;;;28.60;13.37;;;0.30;99.90;;;;;;4438321;28;658685;-72
2021/11/27 01:25:55;;;;;;;27.30;12.17;;;0.30;99.90;;;;;;4457284;27;659111;-72
2021/11/27 01:28:43;;;;;;;27.40;11.60;;;0.30;99.90;;;;;;4442497;27;659774;-71
2021/11/27 01:31:31;;;;;;;18.43;7.80;;;0.30;99.90;;;;;;4444041;27;658547;-72
2021/11/27 01:34:19;;;;;;;23.83;10.93;;;0.30;99.90;;;;;;4467318;27;657427;-72
2021/11/27 01:37:06;;;;;;;27.48;11.63;;;0.30;99.90;;;;;;4445275;27;659013;-72
2021/11/27 01:39:54;;;;;;;27.67;12.60;;;0.30;99.90;;;;;;4461939;27;660475;-72
2021/11/27 01:42:43;;;;;;;17.70;8.13;;;0.30;99.90;;;;;;4440593;27;658660;-71
2021/11/27 01:45:31;;;;;;;18.87;9.20;;;0.30;99.90;;;;;;4443735;27;657282;-72
2021/11/27 01:48:20;;;;;;;24.25;11.55;;;0.30;99.90;;;;;;4464798;27;658399;-72
2021/11/27 01:51:10;;;;;;;63.80;12.10;;;0.40;99.90;;;;;;4441461;27;659451;-72
2021/11/27 01:54:02;;;;;;;24.77;12.43;;;0.30;99.90;;;;;;4441938;27;659334;-71
2021/11/27 01:56:51;;;;;;;25.42;10.98;;;0.30;99.90;;;;;;4437728;27;658859;-72
2021/11/27 01:59:42;;;;;;;26.23;12.57;;;0.30;99.90;;;;;;4439519;27;659161;-71
2021/11/27 02:02:30;;;;;;;25.88;12.90;;;0.40;99.90;;;;;;4436621;27;659175;-71
2021/11/27 02:05:17;;;;;;;24.43;11.87;;;0.30;99.90;;;;;;4438710;27;660422;-71
2021/11/27 02:08:06;;;;;;;26.17;10.93;;;0.40;99.90;;;;;;4455204;27;658886;-72
2021/11/27 02:10:53;;;;;;;23.83;12.37;;;0.40;99.90;;;;;;4465167;27;659515;-72
2021/11/27 02:13:41;;;;;;;24.20;11.57;;;0.40;99.90;;;;;;4444346;27;659536;-72
2021/11/27 02:16:30;;;;;;;27.33;13.27;;;0.40;99.90;;;;;;4460618;27;660159;-72
2021/11/27 02:19:18;;;;;;;24.93;12.43;;;0.30;99.90;;;;;;4441793;27;658969;-72
2021/11/27 02:22:07;;;;;;;29.07;13.27;;;0.30;99.90;;;;;;4441264;27;659149;-72
2021/11/27 02:24:55;;;;;;;28.63;13.47;;;0.40;99.90;;;;;;4457207;27;658832;-72
2021/11/27 02:27:43;;;;;;;32.93;13.53;;;0.30;99.90;;;;;;4434758;27;659656;-72
2021/11/27 02:30:31;;;;;;;26.63;12.23;;;0.40;99.90;;;;;;4441575;28;659064;-72
2021/11/27 02:33:18;;;;;;;33.70;15.37;;;0.40;99.90;;;;;;4457793;27;659181;-72
2021/11/27 02:36:06;;;;;;;27.00;14.23;;;0.40;99.90;;;;;;4440485;27;659135;-72
2021/11/27 02:38:55;;;;;;;36.00;15.33;;;0.30;99.90;;;;;;4455316;27;659013;-72
2021/11/27 02:41:43;;;;;;;28.20;11.93;;;0.30;99.90;;;;;;4426368;27;659578;-72
2021/11/27 02:44:32;;;;;;;36.63;14.00;;;0.30;99.90;;;;;;4436902;27;659098;-72
2021/11/27 02:47:19;;;;;;;37.27;16.57;;;0.30;99.90;;;;;;4460201;27;658258;-72
2021/11/27 02:50:08;;;;;;;39.33;17.83;;;0.30;99.90;;;;;;4436849;27;659075;-72
2021/11/27 02:52:55;;;;;;;33.90;15.37;;;0.30;99.90;;;;;;4441757;27;658453;-72
2021/11/27 02:55:45;;;;;;;37.97;17.87;;;0.30;99.90;;;;;;4440600;28;659502;-72
2021/11/27 02:58:33;;;;;;;34.73;15.63;;;0.30;99.90;;;;;;4438356;27;659387;-72
2021/11/27 03:01:21;;;;;;;39.05;15.77;;;0.30;99.90;;;;;;4438187;28;658491;-73
2021/11/27 03:04:08;;;;;;;42.00;17.60;;;0.30;99.90;;;;;;4459161;28;659309;-72
2021/11/27 03:06:56;;;;;;;42.23;16.03;;;0.30;99.90;;;;;;4439102;28;658543;-72
2021/11/27 03:09:44;;;;;;;49.03;18.20;;;0.30;99.90;;;;;;4455298;28;659474;-72
2021/11/27 03:12:33;;;;;;;45.27;17.57;;;0.30;99.90;;;;;;4436306;28;658893;-72
2021/11/27 03:15:21;;;;;;;51.00;18.63;;;0.30;99.90;;;;;;4439978;28;659185;-72
2021/11/27 03:18:09;;;;;;;62.30;22.50;;;0.30;99.90;;;;;;4460398;28;658525;-72
2021/11/27 03:20:56;;;;;;;53.17;19.37;;;0.30;99.90;;;;;;4432331;28;658825;-72
2021/11/27 03:23:44;;;;;;;73.63;23.03;;;0.30;99.90;;;;;;4456449;28;659144;-72
2021/11/27 03:26:32;;;;;;;53.03;16.63;;;0.30;99.90;;;;;;4432010;28;659325;-73
2021/11/27 03:29:21;;;;;;;49.73;17.43;;;0.30;99.90;;;;;;4456040;28;658745;-72
2021/11/27 03:32:10;;;;;;;71.47;16.90;;;0.30;99.90;;;;;;4436547;28;658821;-72
2021/11/27 03:34:58;;;;;;;69.03;19.17;;;0.30;99.90;;;;;;4435686;28;659373;-72
2021/11/27 03:37:46;;;;;;;75.57;17.50;;;0.30;99.90;;;;;;4438594;28;658301;-73
2021/11/27 03:40:34;;;;;;;44.50;14.63;;;0.30;99.90;;;;;;4462339;27;659309;-73
2021/11/27 03:43:22;;;;;;;85.30;18.70;;;0.30;99.90;;;;;;4441837;27;658494;-72
2021/11/27 03:46:11;;;;;;;33.60;12.77;;;0.30;99.90;;;;;;4460920;27;658488;-72
2021/11/27 03:48:59;;;;;;;63.65;18.38;;;0.30;99.90;;;;;;4439177;27;659436;-73
2021/11/27 03:51:46;;;;;;;54.83;11.20;;;0.30;99.90;;;;;;4442440;27;658672;-73
2021/11/27 03:54:34;;;;;;;82.43;21.20;;;0.30;99.90;;;;;;4450038;27;659495;-72
2021/11/27 03:57:22;;;;;;;72.35;17.65;;;0.30;99.90;;;;;;4436204;27;658692;-73
2021/11/27 04:00:10;;;;;;;66.53;16.93;;;0.30;99.90;;;;;;4463568;27;658351;-73
2021/11/27 04:02:59;;;;;;;73.43;22.00;;;0.30;99.90;;;;;;4442444;27;659361;-72
2021/11/27 04:05:48;;;;;;;99.17;22.23;;;0.30;99.90;;;;;;4446346;27;659235;-72
2021/11/27 04:08:36;;;;;;;110.33;20.77;;;0.30;99.90;;;;;;4444210;27;658678;-72
2021/11/27 04:11:23;;;;;;;126.10;19.63;;;0.30;99.90;;;;;;4467450;27;661168;-72
2021/11/27 04:14:11;;;;;;;115.23;13.50;;;0.40;99.90;;;;;;4447897;27;660008;-72
2021/11/27 04:16:59;;;;;;;117.70;18.93;;;0.40;99.90;;;;;;4465237;27;661004;-73
2021/11/27 04:19:48;;;;;;;61.60;13.00;;;0.40;99.90;;;;;;4445997;27;659599;-73
2021/11/27 04:22:36;;;;;;;83.70;18.27;;;0.40;99.90;;;;;;4442966;27;658396;-72
2021/11/27 04:25:23;;;;;;;84.37;16.23;;;0.40;99.90;;;;;;4471537;27;659272;-73
2021/11/27 04:28:11;;;;;;;79.83;16.80;;;0.40;99.90;;;;;;4449239;27;658277;-72
2021/11/27 04:30:59;;;;;;;77.33;17.73;;;0.40;99.90;;;;;;4466102;27;659602;-72
2021/11/27 04:33:47;;;;;;;50.77;13.03;;;0.40;99.90;;;;;;4448178;27;659015;-72
2021/11/27 04:36:36;;;;;;;81.20;17.90;;;0.40;99.90;;;;;;4466885;27;658670;-72
2021/11/27 04:39:24;;;;;;;69.80;16.70;;;0.40;99.90;;;;;;4451130;27;659247;-72
2021/11/27 04:42:11;;;;;;;80.27;19.17;;;0.40;99.90;;;;;;4448195;27;659002;-73
2021/11/27 04:44:59;;;;;;;70.83;20.50;;;0.40;99.90;;;;;;4464586;27;658528;-72
2021/11/27 04:47:47;;;;;;;81.87;19.70;;;0.40;99.90;;;;;;4442295;27;658716;-73
2021/11/27 04:50:34;;;;;;;72.23;21.40;;;0.40;99.90;;;;;;4456178;28;659043;-72
2021/11/27 04:53:23;;;;;;;63.13;22.90;;;0.50;99.90;;;;;;4439867;28;658933;-73
2021/11/27 04:56:11;;;;;;;82.73;21.33;;;0.50;99.90;;;;;;4419854;28;659460;-73
2021/11/27 04:58:59;;;;;;;88.63;23.38;;;0.50;99.90;;;;;;4457468;28;659962;-72
2021/11/27 05:01:46;;;;;;;86.83;26.70;;;0.50;99.90;;;;;;4440962;28;659514;-72
2021/11/27 05:04:34;;;;;;;100.57;27.10;;;0.50;99.90;;;;;;4460503;27;659121;-72
2021/11/27 05:07:21;;;;;;;104.80;27.43;;;0.50;99.90;;;;;;4448646;27;659664;-73
2021/11/27 05:10:11;;;;;;;74.07;22.33;;;0.50;99.90;;;;;;4466733;27;660596;-73
2021/11/27 05:12:58;;;;;;;78.43;23.67;;;0.50;99.90;;;;;;4443903;27;659562;-72
2021/11/27 05:15:46;;;;;;;64.77;19.07;;;0.40;99.90;;;;;;4443971;27;658860;-73
2021/11/27 05:18:34;;;;;;;66.77;18.80;;;0.50;99.90;;;;;;4468886;27;659527;-72
2021/11/27 05:21:21;;;;;;;55.63;19.73;;;0.50;99.90;;;;;;4448648;27;659287;-72
2021/11/27 05:24:09;;;;;;;60.73;19.60;;;0.50;99.90;;;;;;4466870;27;659394;-72
2021/11/27 05:26:58;;;;;;;41.07;15.93;;;0.50;99.90;;;;;;4445849;27;658565;-73
2021/11/27 05:29:45;;;;;;;33.07;12.50;;;0.60;99.90;;;;;;4447808;27;659921;-72
2021/11/27 05:32:50;;;;;;;41.17;15.70;;;0.60;99.90;;;;;;4465764;27;659833;-72
2021/11/27 05:35:38;;;;;;;38.87;12.57;;;0.60;99.90;;;;;;4421075;27;659494;-72
2021/11/27 05:38:26;;;;;;;46.53;17.83;;;0.60;99.90;;;;;;4448993;27;658897;-73
2021/11/27 05:41:14;;;;;;;36.33;14.73;;;0.60;99.90;;;;;;4467927;27;658793;-72
2021/11/27 05:44:03;;;;;;;37.53;15.33;;;0.60;99.90;;;;;;4446740;27;658790;-72
2021/11/27 05:46:51;;;;;;;39.90;16.90;;;0.70;99.90;;;;;;4445421;27;658928;-73
2021/11/27 05:49:38;;;;;;;46.33;19.30;;;0.70;99.90;;;;;;4466504;27;658685;-72
2021/11/27 05:52:26;;;;;;;46.43;19.50;;;0.60;99.90;;;;;;4447216;27;658714;-73
2021/11/27 05:55:14;;;;;;;45.50;18.63;;;0.70;99.90;;;;;;4446158;27;658788;-72
2021/11/27 05:58:02;;;;;;;41.80;17.73;;;0.60;99.90;;;;;;4439122;27;658524;-72
2021/11/27 06:00:51;;;;;;;35.60;15.90;;;0.70;99.90;;;;;;4464823;27;659908;-72
2021/11/27 06:03:38;;;;;;;38.53;15.53;;;0.70;99.90;;;;;;4442352;27;659125;-72
2021/11/27 06:06:26;;;;;;;36.17;17.23;;;0.70;99.90;;;;;;4447072;27;658788;-71
2021/11/27 06:09:14;;;;;;;39.43;16.73;;;0.70;99.90;;;;;;4465987;27;658745;-72
2021/11/27 06:12:01;;;;;;;36.13;14.23;;;0.70;99.90;;;;;;4444042;27;658851;-72
2021/11/27 06:14:49;;;;;;;39.80;18.90;;;0.70;99.90;;;;;;4464582;27;659494;-71
2021/11/27 06:17:38;;;;;;;43.30;17.97;;;0.80;99.90;;;;;;4443725;27;658530;-72
2021/11/27 06:20:26;;;;;;;41.50;19.20;;;0.80;99.90;;;;;;4445391;27;658836;-72
2021/11/27 06:23:14;;;;;;;42.57;18.50;;;0.80;99.90;;;;;;4462591;27;659263;-71
2021/11/27 06:26:02;;;;;;;39.33;18.37;;;0.80;99.90;;;;;;4439643;27;660067;-72
2021/11/27 06:28:50;;;;;;;35.93;17.53;;;0.80;99.90;;;;;;4464409;27;658520;-72
2021/11/27 06:31:38;;;;;;;36.80;17.00;;;0.80;99.90;;;;;;4443281;27;659081;-72
2021/11/27 06:34:27;;;;;;;29.10;12.53;;;0.80;99.90;;;;;;4456381;27;658474;-72
2021/11/27 06:37:15;;;;;;;35.63;17.55;;;0.80;99.90;;;;;;4464941;27;658797;-72
2021/11/27 06:40:18;;;;;;;34.27;17.13;;;0.70;99.90;;;;;;4440296;27;659330;-72
2021/11/27 06:43:06;;;;;;;38.20;17.50;;;0.80;99.90;;;;;;4429686;27;658889;-72
2021/11/27 06:45:53;;;;;;;38.30;16.50;;;0.80;99.90;;;;;;4463952;28;659219;-72
2021/11/27 06:48:41;;;;;;;33.63;15.73;;;0.80;99.90;;;;;;4434001;28;658685;-72
2021/11/27 06:51:30;;;;;;;35.90;16.10;;;0.80;99.90;;;;;;4456104;28;659086;-72
2021/11/27 06:54:18;;;;;;;34.88;16.63;;;0.90;99.90;;;;;;4431134;27;659825;-72
2021/11/27 06:57:06;;;;;;;32.88;16.60;;;0.80;99.90;;;;;;4448579;27;658809;-73
2021/11/27 06:59:54;;;;;;;87.00;18.10;;;0.90;99.90;;;;;;4463324;28;659489;-72
2021/11/27 07:02:53;;;;;;;31.13;15.60;;;0.90;99.90;;;;;;4436749;28;658713;-72
2021/11/27 07:05:41;;;;;;;35.03;18.53;;;0.80;99.90;;;;;;4420805;27;658793;-72
2021/11/27 07:08:30;;;;;;;34.95;14.60;;;0.90;99.90;;;;;;4462343;27;659270;-71
2021/11/27 07:11:18;;;;;;;37.10;17.90;;;0.90;99.90;;;;;;4441488;27;658252;-72
2021/11/27 07:14:06;;;;;;;35.40;18.02;;;0.90;99.90;;;;;;4454109;28;659639;-72
2021/11/27 07:16:53;;;;;;;37.10;16.70;;;1.00;99.90;;;;;;4465530;28;659883;-72
2021/11/27 07:19:41;;;;;;;37.77;17.87;;;1.00;99.90;;;;;;4443078;28;658866;-72
2021/11/27 07:22:29;;;;;;;35.08;17.63;;;1.10;99.90;;;;;;4464016;28;659191;-71
2021/11/27 07:25:18;;;;;;;34.10;17.07;;;1.10;99.90;;;;;;4444146;28;658266;-72
2021/11/27 07:28:06;;;;;;;31.47;16.83;;;1.10;99.90;;;;;;4454342;28;658988;-72
2021/11/27 07:30:54;;;;;;;33.53;16.53;;;1.20;99.90;;;;;;4467459;28;659294;-73
2021/11/27 07:33:41;;;;;;;27.67;13.23;;;1.20;99.90;;;;;;4452309;28;658818;-71
2021/11/27 07:36:29;;;;;;;36.33;16.93;;;1.20;99.90;;;;;;4467502;28;659052;-72
2021/11/27 07:39:17;;;;;;;34.37;16.80;;;1.20;99.90;;;;;;4440016;28;659836;-71
2021/11/27 07:42:07;;;;;;;31.80;16.37;;;1.20;99.90;;;;;;4468358;28;658643;-71
2021/11/27 07:44:54;;;;;;;29.53;16.03;;;1.20;99.90;;;;;;4449103;28;659233;-72
2021/11/27 07:47:42;;;;;;;33.77;16.60;;;1.20;99.90;;;;;;4454172;28;658515;-72
2021/11/27 07:50:30;;;;;;;30.93;15.07;;;1.20;99.90;;;;;;4461760;28;658993;-71
2021/11/27 07:53:18;;;;;;;36.17;16.87;;;1.20;99.90;;;;;;4443345;28;659073;-72
2021/11/27 07:56:06;;;;;;;39.00;17.90;;;1.20;99.90;;;;;;4427180;28;658477;-72
2021/11/27 07:58:55;;;;;;;29.47;15.30;;;1.20;99.90;;;;;;4476444;28;661100;-72
2021/11/27 08:01:42;;;;;;;35.03;16.87;;;1.20;99.90;;;;;;4445903;28;659309;-72
2021/11/27 08:04:31;;;;;;;26.77;12.10;;;1.20;99.90;;;;;;4472352;28;659025;-73
2021/11/27 08:07:18;;;;;;;35.03;17.70;;;1.30;99.90;;;;;;4464787;28;658461;-72
2021/11/27 08:10:07;;;;;;;32.47;16.43;;;1.30;99.90;;;;;;4445504;28;658530;-72
2021/11/27 08:12:55;;;;;;;29.57;15.73;;;1.30;99.90;;;;;;4469503;28;658825;-72
2021/11/27 08:15:44;;;;;;;31.47;16.37;;;1.40;99.90;;;;;;4438865;28;658956;-72
2021/11/27 08:18:31;;;;;;;30.67;14.83;;;1.50;99.90;;;;;;4438017;28;658614;-72
2021/11/27 08:21:19;;;;;;;27.27;11.97;;;1.50;99.90;;;;;;4451745;28;658908;-72
2021/11/27 08:24:07;;;;;;;23.40;10.83;;;1.50;99.90;;;;;;4438258;28;661102;-72
2021/11/27 08:27:05;;;;;;;28.43;14.20;;;1.50;99.90;;;;;;4458125;28;658650;-71
2021/11/27 08:29:53;;;;;;;28.80;13.93;;;1.50;99.90;;;;;;4443197;28;658663;-72
2021/11/27 08:32:47;;;;;;;30.30;15.37;;;1.40;99.90;;;;;;4440241;28;658518;-72
2021/11/27 08:35:35;;;;;;;29.67;11.85;;;1.40;99.90;;;;;;4442601;27;658818;-72
2021/11/27 08:38:23;;;;;;;29.73;15.67;;;1.40;99.90;;;;;;4444406;27;659177;-73
2021/11/27 08:41:11;;;;;;;31.57;16.20;;;1.50;99.90;;;;;;4455548;27;658575;-73
2021/11/27 08:43:59;;;;;;;32.47;15.30;;;1.50;99.90;;;;;;4464927;27;659012;-73
2021/11/27 08:46:46;;;;;;;29.60;14.63;;;1.70;99.90;;;;;;4441765;27;658737;-71
2021/11/27 08:49:35;;;;;;;30.73;14.63;;;1.70;99.90;;;;;;4462004;27;659183;-72
2021/11/27 08:52:23;;;;;;;26.53;13.13;;;1.70;99.90;;;;;;4434508;27;659392;-72
2021/11/27 08:55:11;;;;;;;28.20;13.33;;;1.80;99.90;;;;;;4423827;27;658490;-73
2021/11/27 08:57:58;;;;;;;31.30;13.90;;;1.80;99.90;;;;;;4461115;27;659499;-73
2021/11/27 09:00:47;;;;;;;28.40;14.50;;;1.80;99.90;;;;;;4442113;27;658631;-72
2021/11/27 09:03:35;;;;;;;30.07;14.63;;;1.80;99.90;;;;;;4464063;27;659407;-72
2021/11/27 09:06:24;;;;;;;28.27;14.67;;;1.80;99.90;;;;;;4442111;27;659658;-72
2021/11/27 09:09:12;;;;;;;29.53;15.73;;;1.80;99.90;;;;;;4449743;27;658586;-72
2021/11/27 09:12:00;;;;;;;27.97;13.93;;;1.90;99.90;;;;;;4464277;27;658536;-72
2021/11/27 09:14:48;;;;;;;26.73;14.27;;;1.90;99.90;;;;;;4452620;27;659553;-72
2021/11/27 09:17:36;;;;;;;27.30;12.80;;;2.00;99.90;;;;;;4448388;27;658581;-72
2021/11/27 09:20:25;;;;;;;28.20;14.07;;;2.00;99.90;;;;;;4470566;27;659198;-72
2021/11/27 09:23:14;;;;;;;29.20;14.50;;;2.00;99.90;;;;;;4448937;27;659821;-72
2021/11/27 09:26:02;;;;;;;28.33;14.60;;;2.00;99.90;;;;;;4446624;27;658830;-72
2021/11/27 09:28:49;;;;;;;25.63;13.67;;;2.10;99.90;;;;;;4456332;28;659175;-72
2021/11/27 09:31:39;;;;;;;30.80;14.03;;;2.20;99.90;;;;;;4447031;27;659157;-73
2021/11/27 09:34:27;;;;;;;26.90;14.00;;;2.30;99.90;;;;;;4449833;27;659261;-72
2021/11/27 09:37:17;;;;;;;28.97;14.60;;;2.30;99.90;;;;;;4466846;27;659594;-72
2021/11/27 09:40:08;;;;;;;32.33;14.43;;;2.40;99.90;;;;;;4443418;27;659882;-72
2021/11/27 09:42:56;;;;;;;30.83;15.00;;;2.40;99.90;;;;;;4436727;27;659202;-72
2021/11/27 09:45:43;;;;;;;35.30;16.33;;;2.50;99.90;;;;;;4466293;27;659413;-72
2021/11/27 09:48:31;;;;;;;34.97;15.53;;;2.60;99.90;;;;;;4415645;28;658569;-73
2021/11/27 09:51:19;;;;;;;32.17;15.83;;;2.80;99.90;;;;;;4433458;28;659358;-73
2021/11/27 09:54:08;;;;;;;31.53;15.90;;;3.10;99.90;;;;;;4402364;28;658521;-72
2021/11/27 09:56:59;;;;;;;35.93;17.30;;;3.40;99.90;;;;;;4415667;28;659514;-72
2021/11/27 09:59:47;;;;;;;27.87;15.30;;;3.80;99.90;;;;;;4412886;28;659114;-72
2021/11/27 10:02:34;;;;;;;30.03;15.37;;;4.10;99.90;;;;;;4426638;28;658986;-73
2021/11/27 10:05:22;;;;;;;32.97;15.57;;;4.40;99.90;;;;;;4413470;28;658993;-73
2021/11/27 10:08:10;;;;;;;27.98;14.25;;;4.60;99.90;;;;;;4430730;28;659006;-73
2021/11/27 10:10:58;;;;;;;28.60;15.23;;;4.50;1.00;;;;;;4411754;28;659707;-72
2021/11/27 10:13:47;;;;;;;23.20;11.83;;;4.40;1.00;;;;;;4412103;28;657574;-73
2021/11/27 10:16:37;;;;;;;29.52;13.93;;;4.30;1.00;;;;;;4430819;28;657951;-72
2021/11/27 10:19:25;;;;;;;29.30;13.47;;;4.30;1.00;;;;;;4412586;28;657862;-72
2021/11/27 10:22:13;;;;;;;28.63;13.23;;;4.10;1.00;;;;;;4410484;28;658545;-72
2021/11/27 10:25:01;;;;;;;29.80;14.23;;;4.10;1.00;;;;;;4414878;28;657531;-72
2021/11/27 10:27:49;;;;;;;26.77;13.47;;;4.20;1.00;;;;;;4425229;28;658328;-72
2021/11/27 10:30:46;;;;;;;26.67;13.63;;;4.30;1.00;;;;;;4409561;28;657526;-72
2021/11/27 10:33:36;;;;;;;26.43;13.83;;;4.80;99.90;;;;;;4406517;28;658051;-72
2021/11/27 10:36:24;;;;;;;27.90;13.07;;;5.20;1.00;;;;;;4406992;28;659550;-73
2021/11/27 10:39:12;;;;;;;23.83;13.10;;;5.60;99.90;;;;;;4406180;28;658302;-73
2021/11/27 10:42:01;;;;;;;22.97;12.57;;;6.20;99.90;;;;;;4424481;28;658639;-73
2021/11/27 10:44:51;;;;;;;24.93;12.70;;;6.90;1.00;;;;;;4403777;28;658602;-72
2021/11/27 10:47:40;;;;;;;23.57;12.53;;;7.80;1.00;;;;;;4402234;28;658412;-73
2021/11/27 10:50:28;;;;;;;23.57;12.90;;;8.70;1.00;;;;;;4412198;28;657690;-72
2021/11/27 10:53:17;;;;;;;22.67;12.33;;;9.20;1.00;;;;;;4408000;28;657941;-72
2021/11/27 10:56:05;;;;;;;24.70;13.00;;;9.30;1.00;;;;;;4421340;28;657702;-72
2021/11/27 10:59:00;;;;;;;22.37;12.13;;;9.80;99.90;;;;;;4406024;28;658595;-72
2021/11/27 11:02:01;;;;;;;19.47;10.83;;;9.90;99.90;;;;;;4406591;28;658986;-71
2021/11/27 11:05:00;;;;;;;19.88;11.10;;;9.70;99.90;;;;;;4400864;28;658948;-72
2021/11/27 11:07:53;;;;;;;19.07;11.47;;;9.90;1.00;;;;;;4381989;28;659152;-73
2021/11/27 11:10:41;;;;;;;21.23;11.70;;;9.40;99.90;;;;;;4380919;28;657962;-73
2021/11/27 11:13:34;;;;;;;23.17;12.87;;;8.80;1.00;;;;;;4432947;28;658774;-72
2021/11/27 11:16:22;;;;;;;23.23;13.07;;;8.00;47.90;;;;;;4376095;28;659626;-73
2021/11/27 11:19:13;;;;;;;24.03;13.33;;;7.20;90.30;;;;;;4422687;28;658587;-72
2021/11/27 11:22:09;;;;;;;23.33;12.53;;;6.60;99.90;;;;;;4383906;28;658985;-72
2021/11/27 11:24:56;;;;;;;24.03;12.63;;;6.00;1.00;;;;;;4406567;28;659165;-73
2021/11/27 11:27:45;;;;;;;22.13;11.60;;;5.80;99.90;;;;;;4425907;28;658219;-72
2021/11/27 11:30:36;;;;;;;19.50;9.73;;;5.40;99.90;;;;;;4394210;28;659045;-72
2021/11/27 11:33:25;;;;;;;24.20;10.10;;;5.00;35.20;;;;;;4406174;28;657318;-73
2021/11/27 11:36:13;;;;;;;22.17;10.73;;;4.90;1.00;;;;;;4398099;28;659588;-72
2021/11/27 11:39:02;;;;;;;24.17;11.83;;;4.90;1.00;;;;;;4399539;28;658014;-72
2021/11/27 11:41:50;;;;;;;25.43;11.53;;;5.00;1.00;;;;;;4420770;28;658021;-72
2021/11/27 11:44:41;;;;;;;25.13;12.20;;;5.10;1.00;;;;;;4399449;28;658882;-72
2021/11/27 11:47:29;;;;;;;25.57;13.17;;;5.20;1.00;;;;;;4416242;28;657981;-71
2021/11/27 11:50:17;;;;;;;30.70;14.93;;;5.20;1.00;;;;;;4444178;28;657650;-72
2021/11/27 11:53:08;;;;;;;27.53;13.37;;;5.20;1.00;;;;;;4458887;28;657354;-73
2021/11/27 11:55:58;;;;;;;24.27;12.70;;;5.10;1.00;;;;;;4423345;28;658424;-72
2021/11/27 11:58:47;;;;;;;29.23;12.27;;;4.90;1.00;;;;;;4446436;28;657724;-72
2021/11/27 12:01:35;;;;;;;20.90;10.50;;;4.80;1.00;;;;;;4469105;27;657592;-70
2021/11/27 12:04:22;;;;;;;26.27;12.27;;;4.70;1.00;;;;;;4447911;27;659146;-71
2021/11/27 12:07:11;;;;;;;23.77;11.67;;;4.60;1.00;;;;;;4468393;27;657486;-71
2021/11/27 12:10:23;;;;;;;24.17;10.67;;;4.60;1.00;;;;;;4466972;27;657850;-71
2021/11/27 12:13:32;;;;;;;20.70;9.03;;;4.60;1.00;;;;;;4363514;28;657558;-72
2021/11/27 12:16:19;;;;;;;23.80;10.33;;;4.60;1.00;;;;;;4389856;28;656294;-71
2021/11/27 12:19:09;;;;;;;22.10;9.00;;;4.50;1.00;;;;;;4385284;28;658642;-71
2021/11/27 12:22:33;;;;;;;20.20;10.17;;;4.40;70.60;;;;;;4386578;28;656803;-72
2021/11/27 12:25:24;;;;;;;19.10;7.90;;;4.30;1.00;;;;;;4347567;28;658417;-73
2021/11/27 12:28:15;;;;;;;21.23;8.93;;;4.40;1.00;;;;;;4384727;28;657155;-72
2021/11/27 12:31:08;;;;;;;15.73;6.63;;;4.30;1.00;;;;;;4378236;28;657971;-71
2021/11/27 12:33:58;;;;;;;16.13;7.73;;;4.20;1.00;;;;;;4365262;28;657898;-72
2021/11/27 12:36:49;;;;;;;17.63;7.73;;;4.20;1.00;;;;;;4384409;28;656794;-72
2021/11/27 12:39:41;;;;;;;17.67;7.40;;;4.10;99.90;;;;;;4381936;28;656149;-72
2021/11/27 12:42:35;;;;;;;17.77;7.80;;;4.00;99.90;;;;;;4373639;28;658055;-72
2021/11/27 12:45:35;;;;;;;11.97;5.70;;;3.90;31.20;;;;;;4352955;28;657792;-72
2021/11/27 12:48:39;;;;;;;10.60;5.17;;;4.00;1.00;;;;;;4318584;28;657661;-72
2021/11/27 12:51:27;;;;;;;12.13;5.20;;;4.00;12.10;;;;;;4347805;28;656590;-72
2021/11/27 12:54:29;;;;;;;10.47;5.00;;;4.00;99.90;;;;;;4429203;28;658128;-72
2021/11/27 12:57:17;;;;;;;11.17;5.23;;;4.00;58.50;;;;;;4383605;28;658365;-72
2021/11/27 13:00:06;;;;;;;11.83;5.87;;;4.00;12.30;;;;;;4430621;28;657808;-72
2021/11/27 13:02:56;;;;;;;17.60;7.47;;;4.00;99.90;;;;;;4405150;28;658191;-73
2021/11/27 13:05:46;;;;;;;24.47;9.40;;;4.10;1.00;;;;;;4407810;28;658240;-72
2021/11/27 13:08:34;;;;;;;18.47;7.13;;;4.20;1.00;;;;;;4407177;28;656905;-73
2021/11/27 13:11:24;;;;;;;21.33;7.63;;;4.30;1.00;;;;;;4412878;28;656707;-72
2021/11/27 13:14:22;;;;;;;47.17;15.13;;;4.50;1.00;;;;;;4404894;28;656793;-73
2021/11/27 13:17:11;;;;;;;15.80;6.23;;;4.50;1.00;;;;;;4402657;28;657653;-72
2021/11/27 13:19:58;;;;;;;28.20;9.33;;;4.40;1.00;;;;;;4408545;28;658100;-72
2021/11/27 13:23:01;;;;;;;13.73;6.50;;;4.20;1.00;;;;;;4412769;28;656600;-72
2021/11/27 13:25:50;;;;;;;12.77;6.67;;;4.30;1.00;;;;;;4403268;28;656691;-73
2021/11/27 13:28:39;;;;;;;14.73;7.00;;;4.30;1.00;;;;;;4408919;28;657333;-73
2021/11/27 13:31:29;;;;;;;11.67;5.70;;;4.30;1.00;;;;;;4408691;28;656874;-72
2021/11/27 13:34:17;;;;;;;13.60;6.67;;;4.40;99.90;;;;;;4407116;28;656686;-72
2021/11/27 13:37:06;;;;;;;13.13;6.00;;;4.40;99.90;;;;;;4425108;28;658163;-72
2021/11/27 13:39:55;;;;;;;11.60;6.13;;;4.40;99.90;;;;;;4429939;28;657928;-72
2021/11/27 13:42:43;;;;;;;38.27;12.10;;;4.50;1.00;;;;;;4402788;28;658470;-72
2021/11/27 13:45:31;;;;;;;24.13;9.90;;;4.60;1.00;;;;;;4410286;28;657915;-72
2021/11/27 13:48:19;;;;;;;46.50;18.10;;;4.60;1.00;;;;;;4449625;28;659464;-72
2021/11/27 13:51:07;;;;;;;61.67;22.20;;;4.60;55.20;;;;;;4425053;28;658040;-72
2021/11/27 13:53:55;;;;;;;39.93;14.83;;;4.60;99.90;;;;;;4446596;28;658877;-73
2021/11/27 13:56:44;;;;;;;48.30;18.77;;;4.70;99.90;;;;;;4419763;28;658734;-72
2021/11/27 13:59:32;;;;;;;76.90;25.38;;;4.70;1.00;;;;;;4426509;28;658742;-72
2021/11/27 14:02:21;;;;;;;55.00;22.77;;;4.70;1.00;;;;;;4437776;28;657492;-72
2021/11/27 14:05:09;;;;;;;66.10;26.93;;;4.70;1.00;;;;;;4437429;28;658107;-72
2021/11/27 14:07:57;;;;;;;86.67;33.27;;;4.60;1.00;;;;;;4428527;28;657769;-73
2021/11/27 14:10:59;;;;;;;86.60;33.93;;;4.60;1.00;;;;;;4448725;28;657560;-73
2021/11/27 14:14:03;;;;;;;96.77;36.20;;;4.50;1.00;;;;;;4424094;28;657719;-72
2021/11/27 14:16:51;;;;;;;58.03;25.27;;;4.40;31.50;;;;;;4416101;28;657661;-73
2021/11/27 14:19:39;;;;;;;77.87;33.73;;;4.30;99.90;;;;;;4450970;28;659416;-73
2021/11/27 14:22:27;;;;;;;62.53;28.07;;;4.30;99.90;;;;;;4420369;28;658977;-73